Time;durP1;ratioP1;P1;durP2;ratioP2;P2;SDS_P1;SDS_P2;PMS_P1;PMS_P2;Temp;Humidity;BMP_temperature;BMP_pressure;BME280_temperature;BME280_humidity;BME280_pressure;Samples;Min_cycle;Max_cycle;Signal;HPM_P1;HPM_P2
2023/04/29 00:01:10;;;;;;;4.03;2.00;;;;;;;11.14;100.00;101164.22;5019756;28;20103;-85
2023/04/29 00:03:43;;;;;;;3.80;2.20;;;;;;;11.12;100.00;101166.25;5019612;28;20372;-82
2023/04/29 00:06:12;;;;;;;4.28;2.67;;;;;;;11.12;100.00;101174.31;5020127;28;20087;-84
2023/04/29 00:08:40;;;;;;;3.17;1.70;;;;;;;11.08;100.00;101173.81;5019811;28;20041;-84
2023/04/29 00:11:10;;;;;;;0.30;0.30;;;;;;;11.09;100.00;101171.97;5019216;28;20123;-85
2023/04/29 00:13:40;;;;;;;0.40;0.40;;;;;;;11.08;100.00;101167.59;5036357;28;20102;-84
2023/04/29 00:16:12;;;;;;;0.40;0.40;;;;;;;11.07;100.00;101165.91;5052759;28;20074;-85
2023/04/29 00:18:40;;;;;;;0.30;0.30;;;;;;;10.94;100.00;101159.19;5035962;28;20038;-83
2023/04/29 00:21:06;;;;;;;0.30;0.30;;;;;;;10.96;100.00;101165.25;5052741;28;20029;-86
2023/04/29 00:23:37;;;;;;;0.40;0.40;;;;;;;10.93;100.00;101165.59;5053573;28;20070;-83
2023/04/29 00:26:02;;;;;;;0.30;0.30;;;;;;;10.89;100.00;101164.22;5019713;28;20036;-86
2023/04/29 00:28:31;;;;;;;0.40;0.40;;;;;;;10.83;100.00;101161.38;5019176;28;20041;-84
2023/04/29 00:31:00;;;;;;;0.30;0.30;;;;;;;10.78;100.00;101162.72;5035880;28;20044;-84
2023/04/29 00:33:28;;;;;;;0.40;0.40;;;;;;;10.76;100.00;101162.03;5035838;28;20037;-84
2023/04/29 00:35:57;;;;;;;0.40;0.40;;;;;;;10.75;100.00;101162.22;5036450;28;20032;-84
2023/04/29 00:38:25;;;;;;;0.30;0.30;;;;;;;10.77;100.00;101165.59;5053053;28;20025;-85
2023/04/29 00:40:58;;;;;;;0.30;0.30;;;;;;;10.75;100.00;101168.44;5036332;28;20048;-84
2023/04/29 00:43:24;;;;;;;0.30;0.30;;;;;;;10.77;100.00;101165.59;5052028;28;20029;-85
2023/04/29 00:45:49;;;;;;;2.03;1.85;;;;;;;10.73;100.00;101165.06;5052176;28;20556;-82
2023/04/29 00:48:18;;;;;;;0.40;0.40;;;;;;;10.83;100.00;101175.66;5052355;28;20028;-84
2023/04/29 00:50:43;;;;;;;0.30;0.30;;;;;;;10.77;100.00;101160.22;5035495;28;20041;-84
2023/04/29 00:53:11;;;;;;;0.40;0.40;;;;;;;10.78;100.00;101164.56;5052124;28;20044;-85
2023/04/29 00:55:45;;;;;;;0.40;0.40;;;;;;;10.78;100.00;101161.88;5052312;28;20052;-83
2023/04/29 00:58:13;;;;;;;0.30;0.30;;;;;;;10.74;100.00;101165.91;5035459;28;20032;-82
2023/04/29 01:00:42;;;;;;;0.30;0.30;;;;;;;10.74;100.00;101163.22;5054060;28;20468;-84
2023/04/29 01:03:08;;;;;;;0.30;0.30;;;;;;;10.81;100.00;101163.41;5056167;28;20029;-83
2023/04/29 01:05:37;;;;;;;0.30;0.30;;;;;;;10.80;100.00;101170.63;5055787;28;20391;-84
2023/04/29 01:08:20;;;;;;;0.40;0.40;;;;;;;10.74;100.00;101161.38;5039724;28;20056;-84
2023/04/29 01:11:08;;;;;;;0.30;0.30;;;;;;;10.78;100.00;101170.78;5056120;28;20080;-82
2023/04/29 01:13:40;;;;;;;0.30;0.30;;;;;;;10.77;100.00;101168.28;5022704;28;20395;-85
2023/04/29 01:16:11;;;;;;;0.40;0.40;;;;;;;10.72;100.00;101157.19;5039713;28;20037;-83
2023/04/29 01:18:42;;;;;;;0.40;0.40;;;;;;;10.76;100.00;101161.19;5022939;28;20033;-84
2023/04/29 01:21:10;;;;;;;0.30;0.30;;;;;;;10.71;100.00;101155.47;5055357;28;20025;-85
2023/04/29 01:23:36;;;;;;;0.40;0.40;;;;;;;10.70;100.00;101154.66;5056363;28;20029;-86
2023/04/29 01:26:04;;;;;;;0.38;0.38;;;;;;;10.67;100.00;101149.59;5022881;28;20036;-84
2023/04/29 01:28:50;;;;;;;0.40;0.40;;;;;;;10.69;100.00;101138.66;5055420;28;20390;-86
2023/04/29 01:31:30;;;;;;;0.40;0.40;;;;;;;10.73;100.00;101156.16;5039106;28;20380;-83
2023/04/29 01:34:08;;;;;;;0.40;0.40;;;;;;;10.67;100.00;101148.75;5022371;28;20036;-84
2023/04/29 01:36:57;;;;;;;0.30;0.30;;;;;;;10.64;100.00;101146.38;5055816;28;20045;-83
2023/04/29 01:39:33;;;;;;;0.40;0.40;;;;;;;10.67;100.00;101152.28;5039226;28;20044;-84
2023/04/29 01:42:10;;;;;;;0.40;0.40;;;;;;;10.67;100.00;101154.16;5055281;28;20029;-84
2023/04/29 01:44:42;;;;;;;0.40;0.40;;;;;;;10.67;100.00;101148.75;5055236;28;20056;-84
2023/04/29 01:47:12;;;;;;;0.40;0.40;;;;;;;10.69;100.00;101154.78;5022619;28;20035;-86
2023/04/29 01:49:38;;;;;;;0.30;0.30;;;;;;;10.64;100.00;101147.25;5021970;28;20047;-84
2023/04/29 01:52:08;;;;;;;0.35;0.35;;;;;;;10.62;100.00;101143.03;5056495;28;20025;-82
2023/04/29 01:54:37;;;;;;;0.30;0.30;;;;;;;10.67;100.00;101151.47;5055143;28;20126;-84
2023/04/29 01:57:08;;;;;;;0.40;0.40;;;;;;;10.68;100.00;101148.59;5038186;28;20028;-87
2023/04/29 01:59:33;;;;;;;0.40;0.40;;;;;;;10.67;100.00;101144.22;5021146;28;20052;-83
2023/04/29 02:02:04;;;;;;;0.35;0.35;;;;;;;10.70;100.00;101156.50;5021141;28;20044;-83
2023/04/29 02:04:35;;;;;;;0.30;0.30;;;;;;;10.53;100.00;101139.47;5037517;28;20119;-82
2023/04/29 02:07:04;;;;;;;0.40;0.40;;;;;;;10.62;100.00;101156.50;5053816;28;20122;-84
2023/04/29 02:09:32;;;;;;;0.40;0.40;;;;;;;10.56;100.00;101161.53;5020911;28;20057;-86
2023/04/29 02:11:58;;;;;;;0.32;0.32;;;;;;;10.50;100.00;101161.34;5054509;28;20021;-85
2023/04/29 02:14:29;;;;;;;0.40;0.40;;;;;;;10.41;100.00;101155.09;5053839;28;20078;-83
2023/04/29 02:17:01;;;;;;;0.40;0.40;;;;;;;10.37;100.00;101161.81;5055100;28;20025;-84
2023/04/29 02:19:27;;;;;;;0.30;0.30;;;;;;;10.37;100.00;101161.81;5020468;28;20136;-83
2023/04/29 02:21:58;;;;;;;0.30;0.30;;;;;;;10.32;100.00;101142.66;5020451;28;20515;-84
2023/04/29 02:24:24;;;;;;;0.35;0.35;;;;;;;10.42;100.00;101162.16;5020697;28;20044;-85
2023/04/29 02:26:55;;;;;;;0.40;0.40;;;;;;;10.38;100.00;101155.44;5053223;28;20414;-84
2023/04/29 02:29:26;;;;;;;0.40;0.40;;;;;;;10.38;100.00;101157.28;5021054;28;20029;-83
2023/04/29 02:31:52;;;;;;;0.38;0.38;;;;;;;10.43;100.00;101155.78;5037132;28;20041;-83
2023/04/29 02:34:23;;;;;;;0.40;0.40;;;;;;;10.45;100.00;101153.78;5020817;28;20039;-84
2023/04/29 02:36:52;;;;;;;0.30;0.30;;;;;;;10.46;100.00;101154.63;5021387;28;20032;-85
2023/04/29 02:39:19;;;;;;;0.40;0.40;;;;;;;10.44;100.00;101152.09;5054402;28;20056;-85
2023/04/29 02:41:50;;;;;;;0.40;0.40;;;;;;;10.45;100.00;101152.91;5053297;28;20025;-85
2023/04/29 02:44:19;;;;;;;0.30;0.30;;;;;;;10.44;100.00;101148.56;5036766;28;20025;-84
2023/04/29 02:46:45;;;;;;;0.30;0.30;;;;;;;10.48;100.00;101161.50;5020477;28;20128;-83
2023/04/29 02:49:14;;;;;;;0.40;0.40;;;;;;;10.48;100.00;101149.94;5054255;28;20134;-85
2023/04/29 02:51:41;;;;;;;0.40;0.40;;;;;;;10.56;100.00;101155.31;5020886;28;20055;-82
2023/04/29 02:54:10;;;;;;;0.40;0.40;;;;;;;10.60;100.00;101155.81;5019955;28;20467;-84
2023/04/29 02:56:36;;;;;;;0.30;0.30;;;;;;;10.57;100.00;101156.97;5007919;28;1332423;-84
2023/04/29 02:59:04;;;;;;;0.40;0.40;;;;;;;10.63;100.00;101155.47;5053855;28;20395;-82
2023/04/29 03:01:37;;;;;;;0.40;0.40;;;;;;;10.63;100.00;101160.84;5037650;28;20115;-82
2023/04/29 03:04:09;;;;;;;0.40;0.40;;;;;;;10.61;100.00;101162.84;5020919;28;20033;-83
2023/04/29 03:06:37;;;;;;;0.30;0.30;;;;;;;10.55;100.00;101149.06;5053974;28;20112;-85
2023/04/29 03:09:05;;;;;;;0.30;0.30;;;;;;;10.63;100.00;101164.38;5053653;28;20143;-85
2023/04/29 03:11:36;;;;;;;0.30;0.30;;;;;;;10.55;100.00;101153.59;5054874;28;20040;-84
2023/04/29 03:14:02;;;;;;;0.30;0.30;;;;;;;10.55;100.00;101165.19;5053885;28;20040;-82
2023/04/29 03:16:28;;;;;;;0.35;0.35;;;;;;;10.55;100.00;101167.06;5054462;28;20082;-83
2023/04/29 03:18:54;;;;;;;0.30;0.30;;;;;;;10.56;100.00;101172.28;5020604;28;20037;-82
2023/04/29 03:21:19;;;;;;;0.35;0.35;;;;;;;10.47;100.00;101162.50;5054935;28;20029;-84
2023/04/29 03:23:50;;;;;;;0.32;0.32;;;;;;;10.55;100.00;101181.34;5035367;28;20036;-83
2023/04/29 03:26:21;;;;;;;0.30;0.30;;;;;;;10.55;100.00;101175.97;5037368;28;20402;-84
2023/04/29 03:28:50;;;;;;;0.32;0.32;;;;;;;10.52;100.00;101176.28;5021042;28;20047;-83
2023/04/29 03:31:22;;;;;;;0.40;0.40;;;;;;;10.54;100.00;101187.72;5036747;28;20033;-83
2023/04/29 03:33:47;;;;;;;0.40;0.40;;;;;;;10.55;100.00;101186.72;5053364;28;20025;-84
2023/04/29 03:36:16;;;;;;;0.40;0.40;;;;;;;10.51;100.00;101173.78;5053328;28;20198;-84
2023/04/29 03:38:46;;;;;;;0.30;0.30;;;;;;;10.53;100.00;101180.69;5037230;28;20112;-81
2023/04/29 03:41:16;;;;;;;0.40;0.40;;;;;;;10.57;100.00;101181.19;5053105;28;20036;-84
2023/04/29 03:43:44;;;;;;;0.30;0.30;;;;;;;10.54;100.00;101176.97;5003982;28;20039;-84
2023/04/29 03:46:10;;;;;;;0.40;0.40;;;;;;;10.59;100.00;101167.59;5020323;28;20445;-83
2023/04/29 03:48:41;;;;;;;0.40;0.40;;;;;;;10.55;100.00;101172.44;5020071;28;20541;-82
2023/04/29 03:51:08;;;;;;;0.40;0.40;;;;;;;10.53;100.00;101175.31;5020951;28;20069;-82
2023/04/29 03:53:36;;;;;;;0.40;0.40;;;;;;;10.59;100.00;101172.97;5053713;28;20083;-85
2023/04/29 03:56:02;;;;;;;0.30;0.30;;;;;;;10.56;100.00;101183.03;5020254;28;20033;-82
2023/04/29 03:58:27;;;;;;;0.32;0.32;;;;;;;10.48;100.00;101169.56;5054298;28;20107;-85
2023/04/29 04:00:56;;;;;;;0.30;0.30;;;;;;;10.56;100.00;101183.03;5053405;28;20079;-82
2023/04/29 04:03:24;;;;;;;0.30;0.30;;;;;;;10.51;100.00;101168.41;5053045;28;20029;-85
2023/04/29 04:05:52;;;;;;;0.30;0.30;;;;;;;10.52;100.00;101162.84;5019827;28;20387;-85
2023/04/29 04:08:18;;;;;;;0.30;0.30;;;;;;;10.63;100.00;101185.88;5035856;28;20029;-82
2023/04/29 04:10:46;;;;;;;0.30;0.30;;;;;;;10.57;100.00;101173.94;5019888;28;20414;-85
2023/04/29 04:13:13;;;;;;;0.40;0.40;;;;;;;10.56;100.00;101176.81;5053718;28;20033;-83
2023/04/29 04:15:41;;;;;;;0.30;0.30;;;;;;;10.57;100.00;101171.25;5053976;28;20057;-84
2023/04/29 04:18:12;;;;;;;0.30;0.30;;;;;;;10.55;100.00;101170.56;5053294;28;20391;-83
2023/04/29 04:20:42;;;;;;;;;;;;;;;10.55;100.00;101175.13;5036525;28;20029;-84
2023/04/29 04:23:11;;;;;;;0.30;0.30;;;;;;;10.52;100.00;101176.28;5052328;28;20363;-84
2023/04/29 04:25:49;;;;;;;0.30;0.30;;;;;;;10.50;100.00;101177.47;5053561;28;20033;-86
2023/04/29 04:28:14;;;;;;;0.30;0.30;;;;;;;10.46;100.00;101163.53;5020101;28;20060;-84
2023/04/29 04:30:41;;;;;;;0.40;0.40;;;;;;;10.47;100.00;101165.19;5053300;28;20083;-84
2023/04/29 04:33:09;;;;;;;0.30;0.30;;;;;;;10.51;100.00;101174.63;5052628;28;20036;-83
2023/04/29 04:35:35;;;;;;;0.38;0.38;;;;;;;10.48;100.00;101174.13;5052157;28;20119;-83
2023/04/29 04:38:04;;;;;;;0.30;0.30;;;;;;;10.36;100.00;101157.44;5019399;28;20483;-85
2023/04/29 04:40:33;;;;;;;0.30;0.30;;;;;;;10.48;100.00;101174.13;5052160;28;20032;-82
2023/04/29 04:42:59;;;;;;;0.30;0.30;;;;;;;10.42;100.00;101169.38;5019478;28;20044;-83
2023/04/29 04:45:30;;;;;;;0.40;0.40;;;;;;;10.50;100.00;101175.59;5052286;28;20029;-85
2023/04/29 04:47:56;;;;;;;0.30;0.30;;;;;;;10.49;100.00;101168.56;5052113;28;20044;-83
2023/04/29 04:50:36;;;;;;;0.30;0.30;;;;;;;10.50;100.00;101172.09;5051884;28;20033;-82
2023/04/29 04:53:02;;;;;;;0.35;0.35;;;;;;;10.40;100.00;101158.81;5019717;28;20040;-85
2023/04/29 04:55:30;;;;;;;0.30;0.30;;;;;;;10.50;100.00;101169.41;5053003;28;20024;-87
2023/04/29 04:58:01;;;;;;;0.30;0.30;;;;;;;10.51;100.00;101161.19;5053435;28;20064;-85
2023/04/29 05:00:29;;;;;;;0.40;0.40;;;;;;;10.48;100.00;101168.75;5052322;28;20037;-82
2023/04/29 05:03:01;;;;;;;0.30;0.30;;;;;;;10.51;100.00;101163.03;5052082;28;20383;-84
2023/04/29 05:05:31;;;;;;;0.30;0.30;;;;;;;10.46;100.00;101160.00;5019163;28;20068;-85
2023/04/29 05:08:04;;;;;;;0.30;0.30;;;;;;;10.54;100.00;101174.28;5052269;28;20025;-82
2023/04/29 05:10:32;;;;;;;0.30;0.30;;;;;;;10.52;100.00;101162.00;5019125;28;20497;-85
2023/04/29 05:12:58;;;;;;;0.40;0.40;;;;;;;10.56;100.00;101158.00;5052094;28;20037;-84
2023/04/29 05:15:26;;;;;;;0.40;0.40;;;;;;;10.56;100.00;101169.59;5053390;28;20040;-84
2023/04/29 05:17:54;;;;;;;0.40;0.40;;;;;;;10.57;100.00;101163.19;5034789;28;20029;-86
2023/04/29 05:20:22;;;;;;;0.40;0.40;;;;;;;10.62;100.00;101161.88;5035415;28;20417;-86
2023/04/29 05:22:50;;;;;;;0.40;0.40;;;;;;;10.63;100.00;101168.91;5052063;28;20028;-82
2023/04/29 05:25:21;;;;;;;0.40;0.40;;;;;;;10.63;100.00;101167.06;5052943;28;20348;-85
2023/04/29 05:27:52;;;;;;;0.38;0.38;;;;;;;10.65;100.00;101166.91;5035471;28;20029;-84
2023/04/29 05:30:18;;;;;;;0.40;0.40;;;;;;;10.70;100.00;101175.31;5035122;28;20048;-82
2023/04/29 05:32:47;;;;;;;0.40;0.40;;;;;;;10.74;100.00;101173.97;5035025;28;20039;-83
2023/04/29 05:35:18;;;;;;;0.40;0.40;;;;;;;10.77;100.00;101171.81;5051323;28;20479;-86
2023/04/29 05:37:44;;;;;;;0.30;0.30;;;;;;;10.85;100.00;101170.97;5018936;28;20036;-86
2023/04/29 05:40:16;;;;;;;0.30;0.30;;;;;;;10.93;100.00;101170.97;5035810;28;20352;-87
2023/04/29 05:42:44;;;;;;;0.35;0.35;;;;;;;10.96;100.00;101162.56;5052537;28;20033;-87
2023/04/29 05:45:11;;;;;;;0.30;0.30;;;;;;;10.94;100.00;101161.88;5052464;28;20052;-86
2023/04/29 05:47:42;;;;;;;0.30;0.30;;;;;;;10.99;100.00;101172.97;5053768;28;20029;-82
2023/04/29 05:50:12;;;;;;;0.40;0.40;;;;;;;11.05;100.00;101174.16;5039141;28;20033;-81
2023/04/29 05:52:40;;;;;;;0.30;0.30;;;;;;;11.09;100.00;101167.44;5039479;28;20029;-84
2023/04/29 05:55:09;;;;;;;0.40;0.40;;;;;;;11.09;100.00;101151.28;5055133;28;20083;-84
2023/04/29 05:57:39;;;;;;;0.30;0.30;;;;;;;11.16;100.00;101151.44;5055016;28;20095;-84
2023/04/29 06:00:09;;;;;;;0.40;0.40;;;;;;;11.23;100.00;101163.22;5055195;28;20133;-85
2023/04/29 06:02:38;;;;;;;0.40;0.40;;;;;;;11.26;100.00;101162.88;5038429;28;20051;-83
2023/04/29 06:05:05;;;;;;;0.40;0.40;;;;;;;11.34;100.00;101162.00;5056408;28;20503;-85
2023/04/29 06:07:32;;;;;;;0.40;0.40;;;;;;;11.47;100.00;101165.00;5005315;28;20040;-84
2023/04/29 06:10:01;;;;;;;0.40;0.40;;;;;;;11.57;100.00;101164.84;5054779;28;20028;-81
2023/04/29 06:12:27;;;;;;;0.30;0.30;;;;;;;11.68;100.00;101166.31;5038322;28;20045;-85
2023/04/29 06:14:52;;;;;;;0.40;0.40;;;;;;;11.83;100.00;101169.97;5055838;28;20059;-82
2023/04/29 06:17:20;;;;;;;0.40;0.40;;;;;;;11.97;100.00;101176.53;5056005;28;20036;-85
2023/04/29 06:19:46;;;;;;;0.40;0.40;;;;;;;12.15;100.00;101184.38;5022278;28;20478;-83
2023/04/29 06:22:17;;;;;;;0.40;0.40;;;;;;;12.28;100.00;101182.78;5055218;28;20063;-83
2023/04/29 06:24:43;;;;;;;0.40;0.40;;;;;;;12.51;100.00;101188.19;5021380;28;20032;-83
2023/04/29 06:27:09;;;;;;;0.40;0.40;;;;;;;12.69;100.00;101198.69;5055425;28;20441;-82
2023/04/29 06:29:38;;;;;;;0.40;0.40;;;;;;;12.79;100.00;101194.94;5054796;28;20033;-84
2023/04/29 06:32:04;;;;;;;0.40;0.40;;;;;;;12.83;100.00;101188.97;5021019;28;20060;-82
2023/04/29 06:34:32;;;;;;;0.40;0.40;;;;;;;12.96;100.00;101200.00;5020050;28;20024;-82
2023/04/29 06:36:58;;;;;;;0.40;0.40;;;;;;;13.03;100.00;101183.94;5055161;28;20092;-82
2023/04/29 06:39:24;;;;;;;0.40;0.40;;;;;;;13.12;100.00;101196.34;5026530;28;20029;-82
2023/04/29 06:41:51;;;;;;;0.30;0.30;;;;;;;13.11;100.00;101196.53;5061283;28;20029;-84
2023/04/29 06:44:17;;;;;;;0.38;0.38;;;;;;;13.13;100.00;101176.44;5037173;28;20433;-84
2023/04/29 06:46:43;;;;;;;0.40;0.40;;;;;;;13.23;100.00;101176.19;5037892;28;20025;-84
2023/04/29 06:49:09;;;;;;;0.40;0.40;;;;;;;13.45;100.00;101198.78;5054967;28;20029;-83
2023/04/29 06:51:36;;;;;;;0.40;0.40;;;;;;;13.58;100.00;101188.19;5055081;28;20029;-85
2023/04/29 06:54:08;;;;;;;0.40;0.40;;;;;;;13.66;100.00;101183.72;5036928;28;20450;-83
2023/04/29 06:56:34;;;;;;;0.40;0.40;;;;;;;13.70;100.00;101180.44;5035866;28;20119;-82
2023/04/29 06:59:00;;;;;;;0.40;0.40;;;;;;;13.89;100.00;101197.13;5019729;28;20037;-85
2023/04/29 07:01:27;;;;;;;0.50;0.50;;;;;;;14.55;100.00;101203.41;5054868;28;20025;-84
2023/04/29 07:03:53;;;;;;;0.40;0.40;;;;;;;14.80;100.00;101216.59;5037462;28;20060;-83
2023/04/29 07:06:20;;;;;;;0.60;0.60;;;;;;;15.42;100.00;101209.63;5037323;28;20175;-84
2023/04/29 07:08:46;;;;;;;0.50;0.50;;;;;;;18.39;100.00;101213.16;5054653;28;20037;-83
2023/04/29 07:11:13;;;;;;;0.40;0.40;;;;;;;18.34;100.00;101220.28;5036964;28;20102;-83
2023/04/29 07:13:39;;;;;;;0.60;0.60;;;;;;;18.13;100.00;101211.34;5054678;28;20037;-85
2023/04/29 07:16:15;;;;;;;0.57;0.57;;;;;;;18.84;100.00;101215.00;5036815;28;20387;-83
2023/04/29 07:18:41;;;;;;;0.40;0.40;;;;;;;18.20;100.00;101203.16;5020534;28;20064;-84
2023/04/29 07:21:09;;;;;;;0.40;0.40;;;;;;;17.86;100.00;101215.19;5036632;28;20057;-86
2023/04/29 07:23:39;;;;;;;0.30;0.30;;;;;;;18.05;100.00;101216.19;5036804;28;20071;-82
2023/04/29 07:26:15;;;;;;;0.60;0.60;;;;;;;17.77;100.00;101214.56;5053399;28;20072;-84
2023/04/29 07:28:45;;;;;;;0.60;0.60;;;;;;;19.62;100.00;101219.22;5020898;28;20029;-83
2023/04/29 07:31:11;;;;;;;0.70;0.70;;;;;;;21.58;100.00;101221.69;5053198;28;20025;-84
2023/04/29 07:33:39;;;;;;;0.60;0.60;;;;;;;22.66;100.00;101214.72;5053358;28;20032;-84
2023/04/29 07:36:06;;;;;;;0.50;0.50;;;;;;;23.48;95.86;101224.38;5036170;28;20128;-84
2023/04/29 07:38:32;;;;;;;0.60;0.60;;;;;;;23.92;89.23;101219.00;5052790;28;20110;-84
2023/04/29 07:40:58;;;;;;;0.77;0.77;;;;;;;24.25;87.90;101226.31;5053308;28;20091;-85
2023/04/29 07:43:24;;;;;;;0.60;0.60;;;;;;;24.29;88.12;101223.88;5053752;28;20028;-84
2023/04/29 07:45:50;;;;;;;0.60;0.60;;;;;;;24.53;86.68;101232.69;5054458;28;20029;-85
2023/04/29 07:48:15;;;;;;;0.50;0.50;;;;;;;24.90;90.42;101241.09;5053702;28;20053;-85
2023/04/29 07:50:45;;;;;;;1.02;1.02;;;;;;;25.59;87.87;101236.72;5053549;28;20090;-85
2023/04/29 07:53:14;;;;;;;2.03;1.00;;;;;;;26.46;81.96;101246.34;5053751;28;20059;-84
2023/04/29 07:55:40;;;;;;;1.23;1.10;;;;;;;26.76;80.46;101233.75;5036421;28;20049;-84
2023/04/29 07:58:06;;;;;;;1.92;0.88;;;;;;;25.30;82.98;101234.34;5053816;28;20494;-84
2023/04/29 08:00:37;;;;;;;1.70;0.98;;;;;;;23.76;94.58;101222.63;5019688;28;20065;-88
2023/04/29 08:03:03;;;;;;;2.42;1.45;;;;;;;22.65;96.30;101234.97;5036291;28;20123;-84
2023/04/29 08:05:29;;;;;;;1.42;1.10;;;;;;;21.48;100.00;101239.50;5053394;28;20474;-85
2023/04/29 08:07:55;;;;;;;2.35;1.55;;;;;;;20.60;100.00;101238.31;5036505;28;20032;-83
2023/04/29 08:10:21;;;;;;;4.75;2.17;;;;;;;20.02;100.00;101238.78;5022006;28;20549;-83
2023/04/29 08:12:51;;;;;;;2.53;1.60;;;;;;;19.66;100.00;101225.88;5038563;28;20081;-83
2023/04/29 08:15:17;;;;;;;1.98;1.30;;;;;;;19.58;100.00;101228.91;5020390;28;20033;-86
2023/04/29 08:17:43;;;;;;;3.13;1.20;;;;;;;19.27;100.00;101206.94;5052499;28;20029;-84
2023/04/29 08:20:09;;;;;;;1.85;1.23;;;;;;;19.25;100.00;101224.56;5018740;28;20036;-87
2023/04/29 08:22:38;;;;;;;1.45;1.20;;;;;;;19.21;100.00;101229.66;5033504;28;20033;-83
2023/04/29 08:25:04;;;;;;;2.80;1.30;;;;;;;19.32;100.00;101228.91;5033843;28;20472;-83
2023/04/29 08:27:30;;;;;;;3.00;1.55;;;;;;;19.51;100.00;101228.97;5033751;28;20029;-84
2023/04/29 08:29:56;;;;;;;3.13;1.95;;;;;;;19.77;100.00;101222.47;5033627;28;20032;-84
2023/04/29 08:32:22;;;;;;;4.80;1.95;;;;;;;19.92;100.00;101235.72;5033641;28;20460;-83
2023/04/29 08:34:47;;;;;;;3.55;1.60;;;;;;;20.07;100.00;101219.00;5051305;28;20041;-83
2023/04/29 08:37:14;;;;;;;3.30;1.85;;;;;;;20.29;100.00;101231.09;5053255;28;20471;-84
2023/04/29 08:39:42;;;;;;;3.30;1.60;;;;;;;20.34;100.00;101236.72;5035366;28;20029;-84
2023/04/29 08:42:08;;;;;;;3.33;1.65;;;;;;;20.27;100.00;101233.25;5035851;28;20491;-84
2023/04/29 08:44:39;;;;;;;2.95;1.48;;;;;;;20.26;100.00;101233.47;5019066;28;20028;-84
2023/04/29 08:47:05;;;;;;;4.10;1.52;;;;;;;20.31;100.00;101236.34;5035315;28;20548;-83
2023/04/29 08:49:32;;;;;;;2.78;2.00;;;;;;;20.25;100.00;101246.28;5019226;28;20032;-84
2023/04/29 08:52:01;;;;;;;5.35;3.67;;;;;;;20.04;100.00;101242.13;5019441;28;20033;-86
2023/04/29 08:54:31;;;;;;;2.85;2.65;;;;;;;19.86;100.00;101253.03;5052194;28;20087;-86
2023/04/29 08:56:59;;;;;;;4.70;2.10;;;;;;;19.41;100.00;101250.47;5019078;28;20519;-82
2023/04/29 08:59:25;;;;;;;4.28;2.83;;;;;;;19.06;100.00;101259.09;5035089;28;20036;-82
2023/04/29 09:01:52;;;;;;;6.30;3.60;;;;;;;18.96;100.00;101242.41;5051768;28;20021;-87
2023/04/29 09:04:40;;;;;;;3.10;2.30;;;;;;;19.37;100.00;101254.66;5052686;28;20094;-85
2023/04/29 09:07:12;;;;;;;4.82;2.65;;;;;;;19.68;100.00;101251.91;5018162;28;20037;-78
2023/04/29 09:09:46;;;;;;;2.80;2.20;;;;;;;19.99;100.00;101250.16;5034864;28;20438;-82
2023/04/29 09:12:17;;;;;;;2.65;1.70;;;;;;;20.09;100.00;101253.19;5050926;28;20029;-81
2023/04/29 09:14:43;;;;;;;1.73;1.38;;;;;;;20.04;100.00;101244.03;5035714;28;20032;-83
2023/04/29 09:17:11;;;;;;;3.30;2.13;;;;;;;20.17;100.00;101252.88;5051722;28;20025;-80
2023/04/29 09:19:39;;;;;;;3.22;1.95;;;;;;;20.45;100.00;101234.28;5051876;28;20532;-82
2023/04/29 09:22:10;;;;;;;3.53;2.78;;;;;;;20.81;100.00;101249.81;5052974;28;20032;-84
2023/04/29 09:24:37;;;;;;;2.20;1.20;;;;;;;21.09;99.91;101251.94;5039400;28;20033;-83
2023/04/29 09:27:07;;;;;;;1.30;1.20;;;;;;;21.02;98.43;101240.25;5056440;28;20039;-80
2023/04/29 09:29:38;;;;;;;2.30;1.52;;;;;;;21.04;96.80;101249.06;5056658;28;20391;-81
2023/04/29 09:32:23;;;;;;;2.55;1.80;;;;;;;20.79;95.85;101254.66;5022920;28;20032;-80
2023/04/29 09:34:51;;;;;;;2.08;1.88;;;;;;;21.05;95.85;101242.50;5021787;28;20045;-80
2023/04/29 09:37:26;;;;;;;5.20;4.25;;;;;;;21.63;99.95;101251.91;5038969;28;20491;-85
2023/04/29 09:39:53;;;;;;;3.03;1.88;;;;;;;22.50;95.96;101246.47;5039117;28;20033;-81
2023/04/29 09:42:18;;;;;;;1.95;1.40;;;;;;;22.54;86.58;101252.28;5055406;28;20100;-81
2023/04/29 09:44:48;;;;;;;2.78;2.28;;;;;;;22.60;86.36;101243.09;5055089;28;20115;-84
2023/04/29 09:47:14;;;;;;;2.17;1.73;;;;;;;22.58;86.32;101248.00;5038680;28;20071;-81
2023/04/29 09:49:48;;;;;;;2.65;1.90;;;;;;;22.31;86.39;101253.19;5055382;28;20060;-81
2023/04/29 09:52:15;;;;;;;3.15;2.03;;;;;;;21.89;87.67;101250.59;5022781;28;20033;-82
2023/04/29 09:54:42;;;;;;;2.00;1.70;;;;;;;21.89;93.46;101242.41;5022358;28;20091;-84
2023/04/29 09:57:15;;;;;;;3.63;2.20;;;;;;;21.91;92.63;101238.34;5037897;28;20043;-81
2023/04/29 09:59:41;;;;;;;5.57;2.00;;;;;;;21.92;90.62;101245.47;5055059;28;20459;-84
2023/04/29 10:02:14;;;;;;;3.20;2.08;;;;;;;22.66;89.88;101238.56;5055087;28;20037;-79
2023/04/29 10:04:43;;;;;;;3.35;1.60;;;;;;;24.85;74.29;101245.69;5022200;28;20495;-83
2023/04/29 10:07:13;;;;;;;4.20;1.33;;;;;;;23.75;72.70;101242.94;5054843;28;20086;-83
2023/04/29 10:09:46;;;;;;;2.50;1.60;;;;;;;23.40;70.89;101253.06;5022060;28;20051;-82
2023/04/29 10:12:22;;;;;;;2.70;1.50;;;;;;;23.35;66.75;101254.91;5038737;28;20033;-83
2023/04/29 10:15:16;;;;;;;3.28;1.65;;;;;;;23.89;65.88;101255.22;5039302;28;20183;-82
2023/04/29 10:17:52;;;;;;;3.47;1.90;;;;;;;24.24;63.23;101245.78;5052518;28;20121;-83
2023/04/29 10:20:27;;;;;;;2.75;1.13;;;;;;;24.46;57.92;101268.66;5022666;28;20033;-81
2023/04/29 10:23:22;;;;;;;6.18;1.92;;;;;;;25.97;51.47;101273.38;5040060;28;20041;-80
2023/04/29 10:25:58;;;;;;;1.52;1.30;;;;;;;25.12;49.23;101268.53;5038782;28;20464;-79
2023/04/29 10:28:31;;;;;;;1.85;1.50;;;;;;;24.99;50.58;101268.97;5054925;28;20037;-84
2023/04/29 10:31:00;;;;;;;2.53;1.40;;;;;;;25.09;49.92;101258.06;5054778;28;20455;-78
2023/04/29 10:33:32;;;;;;;2.72;1.30;;;;;;;24.26;51.48;101262.84;5021932;28;20065;-79
2023/04/29 10:35:59;;;;;;;1.38;1.05;;;;;;;23.86;50.71;101255.72;5055761;28;20041;-83
2023/04/29 10:38:40;;;;;;;2.53;1.80;;;;;;;23.24;53.06;101273.94;5037672;28;20116;-81
2023/04/29 10:41:49;;;;;;;3.15;2.60;;;;;;;22.36;53.90;101275.19;5021359;28;20518;-80
2023/04/29 10:44:18;;;;;;;2.05;1.50;;;;;;;21.98;56.39;101281.19;5019020;28;20041;-79
2023/04/29 10:46:44;;;;;;;2.63;1.52;;;;;;;21.69;58.19;101270.94;5055321;28;20036;-79
2023/04/29 10:49:10;;;;;;;1.60;1.25;;;;;;;21.32;58.57;101264.81;5052743;28;20036;-83
2023/04/29 10:51:43;;;;;;;4.68;1.70;;;;;;;20.68;61.72;101274.59;5054913;28;20368;-86
2023/04/29 10:54:15;;;;;;;4.97;1.92;;;;;;;20.23;64.74;101269.44;5053874;28;20043;-85
2023/04/29 10:56:42;;;;;;;2.43;1.50;;;;;;;19.77;65.09;101266.13;5037003;28;20487;-84
2023/04/29 10:59:12;;;;;;;8.82;5.63;;;;;;;19.68;67.31;101270.19;5054909;28;20029;-85
2023/04/29 11:01:52;;;;;;;3.03;2.35;;;;;;;19.82;68.39;101268.16;5053454;28;20027;-85
2023/04/29 11:04:23;;;;;;;2.40;1.75;;;;;;;20.07;67.58;101268.97;5020791;28;20032;-83
2023/04/29 11:06:59;;;;;;;2.60;2.13;;;;;;;20.41;66.57;101274.88;5037441;28;20037;-84
2023/04/29 11:09:37;;;;;;;4.80;2.08;;;;;;;20.41;66.21;101272.16;5021222;28;20072;-79
2023/04/29 11:12:16;;;;;;;3.25;2.08;;;;;;;20.48;66.59;101263.88;5021562;28;20463;-81
2023/04/29 11:14:50;;;;;;;2.30;1.50;;;;;;;20.18;66.67;101270.94;5038650;28;20067;-81
2023/04/29 11:17:22;;;;;;;2.25;1.50;;;;;;;19.67;67.42;101257.63;5037048;28;20029;-82
2023/04/29 11:19:54;;;;;;;1.05;0.85;;;;;;;19.02;72.39;101279.66;5037790;28;20047;-80
2023/04/29 11:22:25;;;;;;;1.77;1.20;;;;;;;18.55;76.51;101282.63;5037238;28;20605;-78
2023/04/29 11:25:01;;;;;;;5.32;1.90;;;;;;;18.50;80.25;101268.81;5053581;28;20498;-79
2023/04/29 11:27:34;;;;;;;3.33;2.25;;;;;;;18.84;80.20;101269.50;5054637;28;20029;-83
2023/04/29 11:30:08;;;;;;;3.03;2.00;;;;;;;19.30;79.00;101277.38;5020076;28;20368;-81